createdAt,value
2022-08-01T00:00:05.776Z,19.42
2022-08-01T00:01:05.766Z,19.42
2022-08-01T00:02:06.003Z,19.46
2022-08-01T00:03:05.756Z,19.46
2022-08-01T00:04:05.725Z,19.46
2022-08-01T00:05:05.714Z,19.46
2022-08-01T00:06:05.694Z,19.43
2022-08-01T00:07:05.694Z,19.39
2022-08-01T00:08:05.697Z,19.40
2022-08-01T00:09:05.681Z,19.39
2022-08-01T00:10:05.657Z,19.38
2022-08-01T00:11:05.644Z,19.38
2022-08-01T00:12:05.635Z,19.35
2022-08-01T00:13:05.627Z,19.36
2022-08-01T00:14:05.627Z,19.35
2022-08-01T00:15:05.607Z,19.35
2022-08-01T00:16:13.375Z,19.33
2022-08-01T00:17:07.526Z,19.32
2022-08-01T00:18:05.578Z,19.32
2022-08-01T00:19:05.561Z,19.31
2022-08-01T00:20:05.564Z,19.29
2022-08-01T00:21:05.533Z,19.29
2022-08-01T00:22:05.904Z,19.25
2022-08-01T00:23:05.525Z,19.25
2022-08-01T00:24:05.516Z,19.24
2022-08-01T00:25:05.522Z,19.23
2022-08-01T00:26:05.486Z,19.21
2022-08-01T00:27:05.475Z,19.20
2022-08-01T00:28:05.454Z,19.20
2022-08-01T00:29:05.447Z,19.20
2022-08-01T00:30:13.827Z,19.21
2022-08-01T00:31:06.424Z,19.21
2022-08-01T00:32:05.823Z,19.20
2022-08-01T00:33:05.407Z,19.21
2022-08-01T00:34:05.399Z,19.20
2022-08-01T00:35:05.383Z,19.18
2022-08-01T00:36:05.388Z,19.18
2022-08-01T00:37:05.386Z,19.17
2022-08-01T00:38:05.349Z,19.17
2022-08-01T00:39:05.337Z,19.17
2022-08-01T00:40:05.318Z,19.17
2022-08-01T00:41:05.350Z,19.15
2022-08-01T00:42:05.558Z,19.15
2022-08-01T00:43:05.313Z,19.15
2022-08-01T00:44:05.277Z,19.14
2022-08-01T00:45:05.278Z,19.15
2022-08-01T00:46:05.282Z,19.14
2022-08-01T00:47:05.269Z,19.14
2022-08-01T00:48:05.230Z,19.14
2022-08-01T00:49:05.262Z,19.14
2022-08-01T00:50:06.210Z,19.11
2022-08-01T00:51:05.208Z,19.11
2022-08-01T00:52:05.489Z,19.10
2022-08-01T00:53:05.182Z,19.08
2022-08-01T00:54:05.169Z,19.06
2022-08-01T00:55:05.163Z,19.06
2022-08-01T00:56:05.143Z,19.06
2022-08-01T00:57:05.130Z,19.05
2022-08-01T00:58:06.659Z,19.01
2022-08-01T00:59:05.131Z,18.99
2022-08-01T01:00:05.110Z,18.98
2022-08-01T01:01:05.171Z,18.97
2022-08-01T01:02:05.328Z,18.95
2022-08-01T01:03:06.072Z,18.97
2022-08-01T01:04:08.634Z,18.98
2022-08-01T01:05:05.050Z,18.94
2022-08-01T01:06:05.032Z,18.97
2022-08-01T01:07:05.024Z,18.95
2022-08-01T01:08:05.023Z,18.95
2022-08-01T01:09:05.030Z,18.94
2022-08-01T01:10:04.994Z,18.94
2022-08-01T01:11:04.985Z,18.94
2022-08-01T01:12:05.279Z,18.95
2022-08-01T01:13:04.954Z,18.95
2022-08-01T01:14:04.963Z,18.94
2022-08-01T01:15:04.965Z,18.94
2022-08-01T01:16:04.924Z,18.92
2022-08-01T01:17:04.928Z,18.92
2022-08-01T01:18:04.893Z,18.91
2022-08-01T01:19:04.914Z,18.92
2022-08-01T01:20:04.875Z,18.94
2022-08-01T01:21:04.866Z,18.92
2022-08-01T01:22:05.149Z,18.92
2022-08-01T01:23:04.845Z,18.92
2022-08-01T01:24:04.828Z,18.91
2022-08-01T01:25:04.846Z,18.92
2022-08-01T01:26:04.806Z,18.92
2022-08-01T01:27:04.825Z,18.92
2022-08-01T01:28:04.788Z,18.92
2022-08-01T01:29:04.779Z,18.91
2022-08-01T01:30:04.766Z,18.92
2022-08-01T01:31:04.766Z,18.92
2022-08-01T01:32:04.961Z,18.92
2022-08-01T01:33:04.758Z,18.92
2022-08-01T01:34:04.736Z,18.91
2022-08-01T01:35:04.738Z,18.91
2022-08-01T01:36:04.726Z,18.91
2022-08-01T01:37:05.700Z,18.90
2022-08-01T01:38:04.699Z,18.90
2022-08-01T01:39:04.665Z,18.91
2022-08-01T01:40:04.681Z,18.87
2022-08-01T01:41:04.710Z,18.87
2022-08-01T01:42:04.889Z,18.87
2022-08-01T01:43:04.621Z,18.87
2022-08-01T01:44:04.631Z,18.87
2022-08-01T01:45:04.601Z,18.84
2022-08-01T01:46:04.587Z,18.86
2022-08-01T01:47:04.620Z,18.86
2022-08-01T01:48:04.562Z,18.84
2022-08-01T01:49:04.594Z,18.84
2022-08-01T01:50:04.543Z,18.83
2022-08-01T01:51:04.543Z,18.83
2022-08-01T01:52:04.632Z,18.84
2022-08-01T01:53:04.512Z,18.83
2022-08-01T01:54:04.500Z,18.80
2022-08-01T01:55:04.483Z,18.83
2022-08-01T01:56:04.477Z,18.83
2022-08-01T01:57:04.488Z,18.82
2022-08-01T01:58:04.461Z,18.83
2022-08-01T01:59:04.445Z,18.83
2022-08-01T02:00:04.433Z,18.84
2022-08-01T02:01:04.421Z,18.83
2022-08-01T02:02:06.776Z,18.84
2022-08-01T02:03:04.473Z,18.82
2022-08-01T02:04:04.386Z,18.82
2022-08-01T02:05:04.402Z,18.82
2022-08-01T02:06:04.367Z,18.80
2022-08-01T02:07:04.374Z,18.79
2022-08-01T02:08:04.354Z,18.80
2022-08-01T02:09:04.343Z,18.80
2022-08-01T02:10:04.341Z,18.82
2022-08-01T02:11:04.314Z,18.82
2022-08-01T02:12:08.954Z,18.82
2022-08-01T02:13:04.286Z,18.82
2022-08-01T02:14:04.295Z,18.82
2022-08-01T02:15:04.275Z,18.80
2022-08-01T02:16:04.281Z,18.79
2022-08-01T02:17:04.247Z,18.82
2022-08-01T02:18:04.257Z,18.82
2022-08-01T02:19:04.219Z,18.82
2022-08-01T02:20:04.210Z,18.82
2022-08-01T02:21:04.212Z,18.82
2022-08-01T02:22:04.424Z,18.80
2022-08-01T02:23:04.205Z,18.82
2022-08-01T02:24:06.105Z,18.80
2022-08-01T02:25:04.158Z,18.80
2022-08-01T02:26:09.228Z,18.80
2022-08-01T02:27:05.138Z,18.80
2022-08-01T02:28:04.148Z,18.82
2022-08-01T02:29:04.110Z,18.82
2022-08-01T02:30:04.099Z,18.80
2022-08-01T02:31:04.102Z,18.82
2022-08-01T02:32:04.329Z,18.80
2022-08-01T02:33:04.092Z,18.80
2022-08-01T02:34:04.055Z,18.80
2022-08-01T02:35:04.048Z,18.80
2022-08-01T02:36:29.030Z,18.83
2022-08-01T02:37:05.023Z,18.83
2022-08-01T02:38:04.040Z,18.83
2022-08-01T02:39:03.995Z,18.80
2022-08-01T02:40:04.012Z,18.80
2022-08-01T02:41:03.972Z,18.82
2022-08-01T02:42:04.111Z,18.82
2022-08-01T02:43:03.951Z,18.82
2022-08-01T02:44:03.944Z,18.82
2022-08-01T02:45:03.953Z,18.84
2022-08-01T02:46:03.923Z,18.84
2022-08-01T02:47:03.904Z,18.84
2022-08-01T02:48:03.895Z,18.86
2022-08-01T02:49:03.938Z,18.86
2022-08-01T02:50:03.876Z,18.86
2022-08-01T02:51:05.082Z,18.84
2022-08-01T02:52:04.070Z,18.84
2022-08-01T02:53:03.846Z,18.84
2022-08-01T02:54:03.835Z,18.83
2022-08-01T02:55:03.836Z,18.84
2022-08-01T02:56:03.826Z,18.86
2022-08-01T02:57:03.810Z,18.87
2022-08-01T02:58:03.785Z,18.86
2022-08-01T02:59:03.776Z,18.86
2022-08-01T03:00:03.768Z,18.86
2022-08-01T03:01:03.838Z,18.86
2022-08-01T03:02:04.124Z,18.86
2022-08-01T03:03:03.730Z,18.87
2022-08-01T03:04:03.724Z,18.87
2022-08-01T03:05:03.708Z,18.90
2022-08-01T03:06:03.709Z,18.86
2022-08-01T03:07:03.706Z,18.86
2022-08-01T03:08:04.489Z,18.87
2022-08-01T03:09:04.666Z,18.86
2022-08-01T03:10:03.659Z,18.84
2022-08-01T03:11:03.669Z,18.84
2022-08-01T03:12:03.972Z,18.86
2022-08-01T03:13:03.621Z,18.86
2022-08-01T03:14:03.609Z,18.83
2022-08-01T03:15:03.600Z,18.82
2022-08-01T03:16:03.611Z,18.83
2022-08-01T03:17:03.581Z,18.83
2022-08-01T03:18:03.582Z,18.83
2022-08-01T03:19:03.551Z,18.80
2022-08-01T03:20:03.551Z,18.80
2022-08-01T03:21:03.550Z,18.79
2022-08-01T03:22:03.830Z,18.79
2022-08-01T03:23:03.510Z,18.79
2022-08-01T03:24:03.502Z,18.77
2022-08-01T03:25:03.502Z,18.79
2022-08-01T03:26:03.510Z,18.79
2022-08-01T03:27:03.461Z,18.79
2022-08-01T03:28:03.451Z,18.77
2022-08-01T03:29:03.444Z,18.77
2022-08-01T03:30:03.430Z,18.77
2022-08-01T03:31:03.434Z,18.79
2022-08-01T03:32:03.718Z,18.76
2022-08-01T03:33:03.402Z,18.77
2022-08-01T03:34:05.874Z,18.80
2022-08-01T03:35:03.404Z,18.80
2022-08-01T03:36:03.385Z,18.80
2022-08-01T03:37:03.364Z,18.79
2022-08-01T03:38:18.752Z,18.77
2022-08-01T03:39:04.335Z,18.77
2022-08-01T03:40:03.316Z,18.80
2022-08-01T03:41:03.339Z,18.82
2022-08-01T03:42:03.305Z,18.83
2022-08-01T03:43:03.286Z,18.80
2022-08-01T03:44:03.295Z,18.80
2022-08-01T03:45:03.271Z,18.80
2022-08-01T03:46:03.277Z,18.80
2022-08-01T03:47:03.246Z,18.79
2022-08-01T03:48:03.227Z,18.80
2022-08-01T03:49:03.257Z,18.77
2022-08-01T03:50:03.217Z,18.77
2022-08-01T03:51:03.217Z,18.79
2022-08-01T03:52:03.562Z,18.79
2022-08-01T03:53:03.196Z,18.79
2022-08-01T03:54:03.159Z,18.77
2022-08-01T03:55:03.149Z,18.79
2022-08-01T03:56:03.141Z,18.80
2022-08-01T03:57:03.128Z,18.79
2022-08-01T03:58:07.073Z,18.77
2022-08-01T03:59:04.110Z,18.77
2022-08-01T04:00:03.098Z,18.77
2022-08-01T04:01:03.130Z,18.76
2022-08-01T04:02:03.233Z,18.76
2022-08-01T04:03:03.100Z,18.74
2022-08-01T04:04:03.056Z,18.74
2022-08-01T04:05:03.190Z,18.74
2022-08-01T04:06:03.032Z,18.74
2022-08-01T04:07:03.012Z,18.74
2022-08-01T04:08:03.052Z,18.74
2022-08-01T04:09:02.992Z,18.74
2022-08-01T04:10:02.990Z,18.74
2022-08-01T04:11:02.973Z,18.73
2022-08-01T04:12:12.224Z,18.76
2022-08-01T04:13:03.971Z,18.76
2022-08-01T04:14:02.939Z,18.74
2022-08-01T04:15:03.922Z,18.74
2022-08-01T04:16:02.922Z,18.77
2022-08-01T04:17:02.906Z,18.76
2022-08-01T04:18:02.894Z,18.77
2022-08-01T04:19:02.916Z,18.76
2022-08-01T04:20:02.884Z,18.74
2022-08-01T04:21:02.870Z,18.76
2022-08-01T04:22:03.090Z,18.76
2022-08-01T04:23:02.837Z,18.74
2022-08-01T04:24:02.845Z,18.74
2022-08-01T04:25:02.813Z,18.74
2022-08-01T04:26:02.814Z,18.73
2022-08-01T04:27:02.794Z,18.74
2022-08-01T04:28:02.785Z,18.74
2022-08-01T04:29:02.785Z,18.76
2022-08-01T04:30:02.762Z,18.73
2022-08-01T04:31:02.745Z,18.74
2022-08-01T04:32:02.854Z,18.73
2022-08-01T04:33:02.725Z,18.72
2022-08-01T04:34:02.748Z,18.72
2022-08-01T04:35:02.696Z,18.73
2022-08-01T04:36:05.043Z,18.74
2022-08-01T04:37:02.678Z,18.73
2022-08-01T04:38:02.697Z,18.74
2022-08-01T04:39:02.678Z,18.79
2022-08-01T04:40:02.840Z,18.77
2022-08-01T04:41:09.100Z,18.79
2022-08-01T04:42:04.158Z,18.80
2022-08-01T04:43:02.796Z,18.80
2022-08-01T04:44:02.990Z,18.80
2022-08-01T04:45:03.301Z,18.82
2022-08-01T04:46:02.999Z,18.83
2022-08-01T04:47:02.809Z,18.82
2022-08-01T04:48:02.774Z,18.82
2022-08-01T04:49:02.793Z,18.82
2022-08-01T04:50:02.846Z,18.82
2022-08-01T04:51:02.655Z,18.82
2022-08-01T04:52:02.595Z,18.83
2022-08-01T04:53:02.510Z,18.84
2022-08-01T04:54:02.516Z,18.84
2022-08-01T04:55:02.480Z,18.82
2022-08-01T04:56:02.469Z,18.83
2022-08-01T04:57:02.455Z,18.83
2022-08-01T04:58:02.451Z,18.82
2022-08-01T04:59:02.471Z,18.82
2022-08-01T05:00:02.423Z,18.84
2022-08-01T05:01:02.477Z,18.84
2022-08-01T05:02:02.435Z,18.83
2022-08-01T05:03:02.391Z,18.83
2022-08-01T05:04:02.384Z,18.84
2022-08-01T05:05:02.384Z,18.83
2022-08-01T05:06:02.364Z,18.84
2022-08-01T05:07:02.345Z,18.87
2022-08-01T05:08:02.535Z,18.84
2022-08-01T05:09:02.326Z,18.83
2022-08-01T05:10:02.361Z,18.84
2022-08-01T05:11:02.346Z,18.84
2022-08-01T05:12:02.316Z,18.86
2022-08-01T05:13:02.289Z,18.83
2022-08-01T05:14:02.274Z,18.84
2022-08-01T05:15:02.405Z,18.86
2022-08-01T05:16:02.246Z,18.86
2022-08-01T05:17:02.236Z,18.87
2022-08-01T05:18:02.239Z,18.84
2022-08-01T05:19:02.217Z,18.87
2022-08-01T05:20:02.233Z,18.86
2022-08-01T05:21:02.215Z,18.86
2022-08-01T05:22:02.299Z,18.83
2022-08-01T05:23:02.178Z,18.83
2022-08-01T05:24:02.157Z,18.84
2022-08-01T05:25:02.146Z,18.86
2022-08-01T05:26:02.137Z,18.84
2022-08-01T05:27:02.156Z,18.83
2022-08-01T05:28:02.115Z,18.82
2022-08-01T05:29:02.107Z,18.83
2022-08-01T05:30:02.090Z,18.84
2022-08-01T05:31:02.076Z,18.87
2022-08-01T05:32:02.099Z,18.86
2022-08-01T05:33:02.065Z,18.86
2022-08-01T05:34:02.047Z,18.84
2022-08-01T05:35:02.030Z,18.86
2022-08-01T05:36:02.026Z,18.86
2022-08-01T05:37:02.038Z,18.91
2022-08-01T05:38:01.998Z,18.94
2022-08-01T05:39:01.993Z,18.99
2022-08-01T05:40:01.980Z,19.01
2022-08-01T05:41:01.969Z,19.06
2022-08-01T05:42:01.970Z,19.08
2022-08-01T05:43:01.960Z,19.13
2022-08-01T05:44:01.937Z,19.20
2022-08-01T05:45:01.933Z,19.14
2022-08-01T05:46:01.923Z,19.10
2022-08-01T05:47:01.900Z,19.17
2022-08-01T05:48:01.924Z,19.14
2022-08-01T05:49:01.955Z,19.21
2022-08-01T05:50:01.903Z,19.21
2022-08-01T05:51:01.852Z,19.25
2022-08-01T05:52:01.846Z,19.28
2022-08-01T05:53:01.830Z,19.28
2022-08-01T05:54:01.822Z,19.23
2022-08-01T05:55:01.840Z,19.18
2022-08-01T05:56:01.828Z,19.24
2022-08-01T05:57:01.882Z,19.29
2022-08-01T05:58:01.784Z,19.31
2022-08-01T05:59:01.762Z,19.29
2022-08-01T06:00:01.783Z,19.29
2022-08-01T06:01:01.745Z,19.33
2022-08-01T06:02:01.763Z,19.33
2022-08-01T06:03:01.722Z,19.40
2022-08-01T06:04:01.715Z,19.48
2022-08-01T06:05:01.744Z,19.48
2022-08-01T06:06:01.708Z,19.47
2022-08-01T06:07:01.677Z,19.42
2022-08-01T06:08:01.671Z,19.36
2022-08-01T06:09:01.668Z,19.39
2022-08-01T06:10:01.664Z,19.47
2022-08-01T06:11:01.729Z,19.50
2022-08-01T06:12:01.625Z,19.51
2022-08-01T06:13:01.617Z,19.54
2022-08-01T06:14:01.603Z,19.63
2022-08-01T06:15:01.588Z,19.63
2022-08-01T06:16:01.598Z,19.68
2022-08-01T06:17:01.567Z,19.72
2022-08-01T06:18:01.556Z,19.69
2022-08-01T06:19:01.552Z,19.63
2022-08-01T06:20:01.528Z,19.54
2022-08-01T06:21:01.553Z,19.60
2022-08-01T06:22:01.508Z,19.63
2022-08-01T06:23:02.639Z,19.55
2022-08-01T06:24:02.489Z,19.55
2022-08-01T06:25:01.485Z,19.63
2022-08-01T06:26:01.487Z,19.66
2022-08-01T06:27:01.638Z,19.60
2022-08-01T06:28:09.235Z,19.65
2022-08-01T06:29:01.438Z,19.66
2022-08-01T06:30:01.419Z,19.76
2022-08-01T06:31:01.410Z,19.86
2022-08-01T06:32:01.421Z,19.84
2022-08-01T06:33:01.391Z,19.72
2022-08-01T06:34:01.384Z,19.68
2022-08-01T06:35:01.363Z,19.63
2022-08-01T06:36:01.373Z,19.63
2022-08-01T06:37:01.373Z,19.63
2022-08-01T06:38:02.331Z,19.63
2022-08-01T06:39:01.324Z,19.63
2022-08-01T06:40:01.327Z,19.57
2022-08-01T06:41:01.302Z,19.51
2022-08-01T06:42:01.301Z,19.54
2022-08-01T06:43:01.300Z,19.48
2022-08-01T06:44:01.266Z,19.43
2022-08-01T06:45:01.256Z,19.38
2022-08-01T06:46:01.243Z,19.38
2022-08-01T06:47:01.238Z,19.35
2022-08-01T06:48:01.303Z,19.32
2022-08-01T06:49:01.321Z,19.25
2022-08-01T06:50:01.194Z,19.20
2022-08-01T06:51:01.187Z,19.20
2022-08-01T06:52:01.181Z,19.18
2022-08-01T06:53:01.185Z,19.18
2022-08-01T06:54:01.185Z,19.18
2022-08-01T06:55:01.145Z,19.21
2022-08-01T06:56:01.126Z,19.21
2022-08-01T06:57:01.118Z,19.17
2022-08-01T06:58:01.108Z,19.13
2022-08-01T06:59:01.128Z,19.08
2022-08-01T07:00:01.107Z,19.11
2022-08-01T07:01:01.173Z,19.11
2022-08-01T07:02:01.058Z,19.14
2022-08-01T07:03:01.056Z,19.17
2022-08-01T07:04:01.041Z,19.18
2022-08-01T07:05:01.049Z,19.20
2022-08-01T07:06:01.017Z,19.25
2022-08-01T07:07:01.012Z,19.33
2022-08-01T07:08:00.997Z,19.40
2022-08-01T07:09:06.569Z,19.39
2022-08-01T07:10:02.012Z,19.42
2022-08-01T07:11:00.988Z,19.48
2022-08-01T07:12:00.952Z,19.33
2022-08-01T07:13:00.941Z,19.31
2022-08-01T07:14:00.929Z,19.31
2022-08-01T07:15:00.923Z,19.32
2022-08-01T07:16:00.930Z,19.29
2022-08-01T07:17:00.905Z,19.21
2022-08-01T07:18:00.884Z,19.20
2022-08-01T07:19:00.872Z,19.23
2022-08-01T07:20:00.861Z,19.29
2022-08-01T07:21:00.880Z,19.36
2022-08-01T07:22:00.840Z,19.40
2022-08-01T07:23:00.842Z,19.36
2022-08-01T07:24:00.812Z,19.29
2022-08-01T07:25:00.878Z,19.17
2022-08-01T07:26:01.239Z,19.05
2022-08-01T07:27:00.792Z,18.94
2022-08-01T07:28:01.772Z,18.95
2022-08-01T07:29:00.766Z,18.90
2022-08-01T07:30:00.755Z,18.94
2022-08-01T07:31:00.745Z,18.95
2022-08-01T07:32:00.765Z,18.94
2022-08-01T07:33:00.744Z,18.95
2022-08-01T07:34:00.705Z,18.94
2022-08-01T07:35:00.703Z,18.94
2022-08-01T07:36:00.684Z,18.95
2022-08-01T07:37:00.675Z,19.01
2022-08-01T07:38:00.686Z,19.11
2022-08-01T07:39:00.653Z,19.18
2022-08-01T07:40:00.636Z,19.29
2022-08-01T07:41:00.627Z,19.39
2022-08-01T07:42:07.299Z,19.48
2022-08-01T07:43:01.627Z,19.57
2022-08-01T07:44:04.415Z,19.65
2022-08-01T07:45:00.588Z,19.69
2022-08-01T07:46:00.578Z,19.70
2022-08-01T07:47:00.568Z,19.75
2022-08-01T07:48:00.576Z,19.83
2022-08-01T07:49:00.600Z,19.84
2022-08-01T07:50:00.546Z,19.86
2022-08-01T07:51:00.519Z,19.86
2022-08-01T07:52:03.913Z,19.90
2022-08-01T07:53:00.497Z,19.94
2022-08-01T07:54:00.509Z,20.00
2022-08-01T07:55:00.479Z,20.10
2022-08-01T07:56:00.467Z,20.24
2022-08-01T07:57:00.450Z,20.41
2022-08-01T07:58:00.438Z,20.54
2022-08-01T07:59:00.430Z,20.65
2022-08-01T08:00:00.447Z,20.77
2022-08-01T08:01:00.410Z,20.84
2022-08-01T08:02:00.503Z,20.91
2022-08-01T08:03:00.401Z,20.98
2022-08-01T08:04:00.372Z,21.01
2022-08-01T08:05:00.361Z,21.06
2022-08-01T08:06:00.668Z,21.11
2022-08-01T08:07:00.360Z,21.17
2022-08-01T08:08:00.909Z,21.20
2022-08-01T08:09:00.322Z,21.29
2022-08-01T08:10:00.302Z,21.39
2022-08-01T08:11:00.301Z,21.48
2022-08-01T08:12:00.304Z,21.61
2022-08-01T08:13:00.274Z,21.72
2022-08-01T08:14:00.262Z,21.83
2022-08-01T08:15:00.254Z,21.97
2022-08-01T08:16:00.242Z,21.90
2022-08-01T08:17:00.233Z,21.92
2022-08-01T08:18:00.242Z,21.92
2022-08-01T08:19:00.217Z,21.82
2022-08-01T08:20:00.197Z,21.45
2022-08-01T08:21:03.531Z,21.27
2022-08-01T08:22:01.173Z,21.04
2022-08-01T08:23:00.192Z,20.98
2022-08-01T08:24:00.154Z,20.99
2022-08-01T08:25:00.864Z,21.02
2022-08-01T08:26:00.128Z,21.09
2022-08-01T08:27:00.118Z,21.14
2022-08-01T08:28:00.107Z,21.02
2022-08-01T08:29:00.129Z,20.76
2022-08-01T08:30:00.095Z,20.84
2022-08-01T08:31:00.089Z,20.93
2022-08-01T08:32:00.071Z,21.11
2022-08-01T08:33:00.088Z,21.30
2022-08-01T08:34:00.068Z,21.48
2022-08-01T08:35:00.047Z,21.67
2022-08-01T08:36:00.117Z,21.85
2022-08-01T08:37:00.080Z,21.98
2022-08-01T08:38:00.047Z,22.09
2022-08-01T08:38:59.998Z,22.17
2022-08-01T08:40:00.000Z,22.28
2022-08-01T08:40:59.969Z,22.37
2022-08-01T08:42:00.020Z,22.39
2022-08-01T08:42:59.949Z,22.39
2022-08-01T08:43:59.951Z,22.46
2022-08-01T08:44:59.922Z,22.44
2022-08-01T08:46:00.544Z,22.31
2022-08-01T08:46:59.902Z,22.27
2022-08-01T08:47:59.884Z,22.28
2022-08-01T08:48:59.976Z,22.10
2022-08-01T08:49:59.871Z,22.17
2022-08-01T08:50:59.880Z,22.23
2022-08-01T08:51:59.843Z,22.37
2022-08-01T08:52:59.845Z,22.49
2022-08-01T08:53:59.825Z,22.49
2022-08-01T08:54:59.842Z,22.37
2022-08-01T08:55:59.805Z,22.49
2022-08-01T08:56:59.831Z,22.38
2022-08-01T08:57:59.776Z,22.44
2022-08-01T08:58:59.786Z,22.54
2022-08-01T08:59:59.757Z,22.44
2022-08-01T09:00:59.754Z,22.39
2022-08-01T09:01:59.737Z,22.49
2022-08-01T09:02:59.820Z,22.53
2022-08-01T09:03:59.713Z,22.41
2022-08-01T09:04:59.698Z,22.13
2022-08-01T09:05:59.688Z,21.88
2022-08-01T09:06:59.677Z,21.53
2022-08-01T09:07:59.695Z,21.44
2022-08-01T09:08:59.668Z,21.36
2022-08-01T09:09:59.658Z,21.35
2022-08-01T09:10:59.650Z,21.16
2022-08-01T09:11:59.626Z,21.20
2022-08-01T09:12:59.657Z,21.27
2022-08-01T09:13:59.608Z,21.30
2022-08-01T09:14:59.608Z,21.24
2022-08-01T09:15:59.578Z,21.20
2022-08-01T09:16:59.579Z,21.20
2022-08-01T09:17:59.587Z,21.26
2022-08-01T09:18:59.581Z,21.21
2022-08-01T09:19:59.549Z,21.23
2022-08-01T09:20:59.521Z,21.30
2022-08-01T09:21:59.521Z,21.36
2022-08-01T09:22:59.502Z,21.44
2022-08-01T09:23:59.494Z,21.51
2022-08-01T09:24:59.500Z,21.51
2022-08-01T09:25:59.600Z,21.56
2022-08-01T09:26:59.516Z,21.59
2022-08-01T09:27:59.475Z,21.66
2022-08-01T09:28:59.460Z,21.67
2022-08-01T09:30:01.480Z,21.74
2022-08-01T09:30:59.422Z,21.79
2022-08-01T09:31:59.403Z,21.92
2022-08-01T09:32:59.409Z,22.01
2022-08-01T09:33:59.382Z,22.10
2022-08-01T09:34:59.374Z,22.20
2022-08-01T09:35:59.384Z,22.29
2022-08-01T09:36:59.356Z,22.23
2022-08-01T09:37:59.346Z,21.92
2022-08-01T09:38:59.353Z,21.78
2022-08-01T09:39:59.349Z,21.75
2022-08-01T09:40:59.318Z,21.64
2022-08-01T09:41:59.305Z,21.63
2022-08-01T09:42:59.306Z,21.53
2022-08-01T09:43:59.295Z,21.48
2022-08-01T09:44:59.292Z,21.41
2022-08-01T09:45:59.251Z,21.36
2022-08-01T09:46:59.238Z,21.32
2022-08-01T09:48:00.227Z,21.30
2022-08-01T09:48:59.271Z,21.14
2022-08-01T09:49:59.852Z,20.83
2022-08-01T09:51:04.206Z,20.64
2022-08-01T09:52:00.970Z,20.47
2022-08-01T09:52:59.169Z,20.47
2022-08-01T09:53:59.180Z,20.49
2022-08-01T09:54:59.154Z,20.51
2022-08-01T09:55:59.129Z,20.61
2022-08-01T09:56:59.154Z,20.69
2022-08-01T09:57:59.111Z,20.65
2022-08-01T09:59:00.928Z,20.62
2022-08-01T10:00:01.001Z,20.69
2022-08-01T10:00:59.082Z,20.79
2022-08-01T10:01:59.095Z,20.66
2022-08-01T10:02:59.129Z,20.65
2022-08-01T10:04:00.098Z,20.64
2022-08-01T10:05:03.740Z,20.61
2022-08-01T10:06:00.032Z,20.58
2022-08-01T10:06:59.042Z,20.54
2022-08-01T10:07:59.104Z,20.58
2022-08-01T10:08:59.030Z,20.64
2022-08-01T10:09:58.982Z,20.65
2022-08-01T10:11:00.509Z,20.68
2022-08-01T10:11:58.982Z,20.68
2022-08-01T10:12:58.958Z,20.68
2022-08-01T10:13:58.935Z,20.54
2022-08-01T10:14:58.925Z,20.51
2022-08-01T10:15:58.923Z,20.54
2022-08-01T10:17:03.002Z,20.46
2022-08-01T10:17:59.898Z,20.43
2022-08-01T10:18:58.886Z,20.46
2022-08-01T10:19:58.873Z,20.54
2022-08-01T10:20:58.866Z,20.59
2022-08-01T10:22:00.051Z,20.51
2022-08-01T10:22:58.862Z,20.53
2022-08-01T10:24:02.926Z,20.51
2022-08-01T10:24:58.827Z,20.62
2022-08-01T10:25:58.804Z,20.77
2022-08-01T10:26:58.798Z,20.83
2022-08-01T10:27:58.810Z,20.81
2022-08-01T10:28:58.775Z,20.98
2022-08-01T10:30:05.700Z,21.06
2022-08-01T10:30:59.749Z,21.04
2022-08-01T10:32:00.412Z,21.06
2022-08-01T10:32:58.738Z,21.01
2022-08-01T10:33:58.741Z,21.08
2022-08-01T10:34:58.699Z,20.99
2022-08-01T10:35:58.699Z,20.98
2022-08-01T10:36:58.688Z,21.04
2022-08-01T10:37:58.672Z,21.13
2022-08-01T10:38:58.680Z,21.23
2022-08-01T10:40:27.186Z,21.24
2022-08-01T10:40:59.654Z,21.32
2022-08-01T10:41:58.662Z,21.20
2022-08-01T10:42:58.621Z,21.01
2022-08-01T10:43:58.641Z,20.90
2022-08-01T10:44:58.592Z,20.95
2022-08-01T10:45:58.589Z,21.05
2022-08-01T10:46:58.579Z,21.09
2022-08-01T10:47:58.563Z,21.19
2022-08-01T10:48:58.785Z,21.09
2022-08-01T10:49:58.542Z,21.06
2022-08-01T10:50:58.549Z,20.87
2022-08-01T10:51:58.546Z,20.84
2022-08-01T10:52:58.505Z,20.87
2022-08-01T10:54:00.748Z,20.98
2022-08-01T10:54:58.482Z,20.89
2022-08-01T10:55:59.321Z,20.84
2022-08-01T10:56:58.463Z,20.62
2022-08-01T10:57:58.474Z,20.79
2022-08-01T10:58:58.444Z,20.80
2022-08-01T10:59:59.457Z,20.83
2022-08-01T11:00:58.499Z,20.91
2022-08-01T11:01:58.477Z,21.21
2022-08-01T11:02:58.397Z,21.50
2022-08-01T11:04:01.636Z,21.72
2022-08-01T11:04:58.368Z,21.91
2022-08-01T11:05:58.387Z,21.91
2022-08-01T11:06:58.350Z,21.95
2022-08-01T11:07:58.566Z,21.82
2022-08-01T11:08:58.330Z,21.94
2022-08-01T11:09:58.318Z,21.92
2022-08-01T11:10:58.346Z,21.97
2022-08-01T11:11:58.333Z,21.95
2022-08-01T11:12:58.371Z,21.95
2022-08-01T11:13:58.280Z,22.07
2022-08-01T11:14:58.270Z,22.25
2022-08-01T11:15:58.278Z,22.46
2022-08-01T11:16:59.240Z,22.64
2022-08-01T11:17:58.230Z,22.82
2022-08-01T11:18:58.218Z,22.99
2022-08-01T11:19:58.221Z,23.15
2022-08-01T11:21:56.977Z,23.12
2022-08-01T11:22:01.504Z,22.86
2022-08-01T11:22:58.183Z,22.89
2022-08-01T11:23:58.165Z,22.86
2022-08-01T11:24:58.161Z,22.56
2022-08-01T11:26:06.224Z,22.39
2022-08-01T11:26:59.152Z,22.46
2022-08-01T11:27:58.122Z,22.59
2022-08-01T11:29:19.392Z,22.57
2022-08-01T11:29:59.105Z,22.59
2022-08-01T11:30:58.086Z,22.67
2022-08-01T11:31:58.108Z,22.69
2022-08-01T11:33:11.312Z,22.86
2022-08-01T11:34:03.224Z,22.99
2022-08-01T11:34:58.044Z,22.90
2022-08-01T11:35:58.045Z,22.93
2022-08-01T11:36:59.526Z,22.97
2022-08-01T11:37:58.035Z,23.07
2022-08-01T11:38:58.004Z,23.09
2022-08-01T11:39:57.987Z,23.11
2022-08-01T11:40:57.980Z,22.87
2022-08-01T11:41:57.968Z,22.56
2022-08-01T11:42:58.317Z,22.32
2022-08-01T11:43:57.949Z,22.06
2022-08-01T11:44:57.926Z,21.76
2022-08-01T11:45:57.964Z,21.35
2022-08-01T11:46:57.928Z,20.99
2022-08-01T11:47:57.897Z,20.74
2022-08-01T11:48:57.958Z,20.66
2022-08-01T11:49:57.908Z,20.62
2022-08-01T11:50:57.861Z,20.53
2022-08-01T11:51:57.859Z,20.33
2022-08-01T11:52:57.858Z,20.34
2022-08-01T11:53:57.851Z,20.42
2022-08-01T11:54:57.841Z,20.35
2022-08-01T11:55:57.829Z,20.35
2022-08-01T11:56:57.802Z,20.46
2022-08-01T11:57:57.790Z,20.54
2022-08-01T11:58:57.782Z,20.64
2022-08-01T12:00:03.269Z,20.69
2022-08-01T12:00:58.781Z,20.76
2022-08-01T12:01:57.818Z,20.81
2022-08-01T12:02:58.928Z,20.86
2022-08-01T12:03:57.723Z,20.90
2022-08-01T12:04:57.741Z,20.87
2022-08-01T12:05:57.732Z,20.68
2022-08-01T12:06:57.685Z,20.66
2022-08-01T12:07:57.680Z,20.62
2022-08-01T12:08:57.665Z,20.61
2022-08-01T12:09:57.654Z,20.66
2022-08-01T12:11:02.321Z,20.72
2022-08-01T12:11:58.723Z,20.72
2022-08-01T12:12:57.626Z,20.74
2022-08-01T12:13:57.615Z,20.74
2022-08-01T12:14:57.604Z,20.76
2022-08-01T12:15:57.610Z,20.81
2022-08-01T12:16:57.574Z,20.86
2022-08-01T12:17:59.574Z,20.84
2022-08-01T12:18:57.568Z,20.86
2022-08-01T12:19:57.550Z,20.86
2022-08-01T12:20:57.532Z,20.84
2022-08-01T12:21:57.528Z,20.80
2022-08-01T12:22:57.509Z,20.77
2022-08-01T12:23:57.524Z,20.74
2022-08-01T12:24:57.487Z,20.77
2022-08-01T12:25:57.495Z,20.80
2022-08-01T12:26:57.465Z,20.87
2022-08-01T12:27:57.469Z,20.93
2022-08-01T12:28:57.475Z,21.01
2022-08-01T12:30:05.244Z,21.05
2022-08-01T12:30:57.425Z,21.17
2022-08-01T12:31:57.419Z,21.27
2022-08-01T12:32:57.405Z,21.32
2022-08-01T12:33:57.415Z,21.44
2022-08-01T12:34:57.404Z,21.50
2022-08-01T12:35:57.375Z,21.61
2022-08-01T12:36:57.363Z,21.71
2022-08-01T12:37:57.368Z,21.91
2022-08-01T12:38:57.346Z,21.95
2022-08-01T12:39:57.333Z,22.13
2022-08-01T12:40:57.332Z,22.25
2022-08-01T12:41:57.311Z,22.41
2022-08-01T12:42:57.291Z,22.56
2022-08-01T12:43:57.290Z,22.75
2022-08-01T12:44:57.268Z,22.86
2022-08-01T12:45:57.889Z,23.02
2022-08-01T12:46:57.249Z,23.22
2022-08-01T12:47:57.248Z,23.32
2022-08-01T12:48:57.308Z,23.52
2022-08-01T12:49:57.218Z,23.67
2022-08-01T12:50:57.235Z,23.80
2022-08-01T12:51:57.705Z,23.79